Bookmark and Share
Track history (hours):
 

Chicago Bridge

Last reported at 2014-Apr-18 18:28 UTC. Time now 2014-Apr-20 11:44 UTC.
Position N 34°12' E 134°57'.

Length 279 m; draft 11 m.

Type: Ship (hazmat cat B). MMSI: 352018000.

NotesDate/timePositionNaut miles runAvg speedWind from/ knotsBaromVisibWave heightAir tempDewpointWater temp
2014-Apr-18 18:28N 34°12' E 134°57'1415.3
2014-Apr-18 17:33N 34°24' E 135°04'1717.1
2014-Apr-18 16:33N 34°38' E 135°16'3 2.5
2014-Apr-18 15:24N 34°41' E 135°16'0 0.0
2014-Apr-18 14:24N 34°41' E 135°16'0 0.0
2014-Apr-18 13:18N 34°41' E 135°16'0 0.0
2014-Apr-18 12:30N 34°41' E 135°16'0 0.0
2014-Apr-18 11:30N 34°41' E 135°16'0 0.0
2014-Apr-18 10:30N 34°41' E 135°16'0 0.0
2014-Apr-18 09:24N 34°41' E 135°16'0 0.0
2014-Apr-18 08:30N 34°41' E 135°16'0 0.0
2014-Apr-18 07:24N 34°41' E 135°16'0 0.0
2014-Apr-18 06:30N 34°41' E 135°16'0 0.0
2014-Apr-18 05:18N 34°41' E 135°16'0 0.0
2014-Apr-18 04:30N 34°41' E 135°16'0 0.0
2014-Apr-18 03:30N 34°41' E 135°16'0 0.0
2014-Apr-18 02:24N 34°41' E 135°16'0 0.0
2014-Apr-18 01:30N 34°41' E 135°16'0 0.0
2014-Apr-18 00:23N 34°41' E 135°16'0 0.0
2014-Apr-17 23:29N 34°41' E 135°16'0 0.1
2014-Apr-17 22:33N 34°41' E 135°15'5 5.2
2014-Apr-17 21:33N 34°35' E 135°16'1515.5
2014-Apr-17 20:33N 34°23' E 135°04'1414.2
2014-Apr-17 19:33N 34°10' E 134°59'1211.1
2014-Apr-17 18:30N 33°58' E 134°59'230 5.3
2014-Apr-15 23:06N 34°44' E 139°32'1222.9
2014-Apr-15 22:33N 34°56' E 139°38'1817.9
2014-Apr-15 21:34N 35°12' E 139°46'1212.3
2014-Apr-15 20:34N 35°24' E 139°43'1111.0
2014-Apr-15 19:33N 35°35' E 139°48'3 2.4
2014-Apr-15 18:27N 35°37' E 139°46'0 0.0
2014-Apr-15 17:30N 35°37' E 139°46'0 0.0
2014-Apr-15 16:33N 35°37' E 139°46'0 0.0
2014-Apr-15 15:30N 35°37' E 139°46'0 0.0
2014-Apr-15 14:33N 35°37' E 139°46'0 0.0
2014-Apr-15 11:33N 35°37' E 139°46'0 0.0
2014-Apr-15 10:30N 35°37' E 139°46'0 0.0
2014-Apr-15 06:30N 35°37' E 139°46'0 0.0
2014-Apr-15 01:33N 35°37' E 139°46'0 0.0
2014-Apr-15 00:29N 35°37' E 139°46'0 0.0
2014-Apr-14 23:32N 35°37' E 139°46'5 4.8
2014-Apr-14 22:34N 35°33' E 139°50'1111.0
2014-Apr-14 21:33N 35°23' E 139°46'1111.5
2014-Apr-14 20:34N 35°12' E 139°47'8 8.0
2014-Apr-14 19:34N 35°04' E 139°44'2 2.0
2014-Apr-14 18:34N 35°02' E 139°43'4 4.2
2014-Apr-14 17:33N 34°58' E 139°42'2110.4
2014-Apr-14 15:33N 34°53' E 140°07'1918.6
2014-Apr-14 14:31N 35°04' E 140°26'  

Dump ship's entire track history

sailing weather and tide predictions

Chicago Bridge — H9NR — position and weather